Saint Clair Beach, Canada
Current Conditions -  °F | °C
As of 4:00 AM on Wednesday 22 Oct 2014 (Local Time) from CYQG Reporting Station
Overcast Overcast  
Wind Chill: 41°   Ceiling: 1700
Heat Index: 46°   Visibility: 15mi
Dew Point: 41°   Wind: 10mph
Humidity: 81%   Direction: 360°N
Pressure: 30.2"   Gusts: NA
Location:  42.32°N, 82.85°W
Report Text: CYQG 220800Z 36009KT 15SM OVC017 08/05 A3020 RMK SC8 SLP232
Loading
Personal Weather Stations






























Interactive Weather Map
Tropical Storm Tracking
New forecast layout! Learn more

10-Day Weather Forecast

Advertisements
Track Severe Weather on mobile